createdAt,value
2022-12-08T00:01:21.060Z,101088.44
2022-12-08T00:03:49.649Z,101081.63
2022-12-08T00:06:41.717Z,101079.16
2022-12-08T00:09:25.162Z,101081.81
2022-12-08T00:11:55.640Z,101072.53
2022-12-08T00:14:29.134Z,101051.09
2022-12-08T00:16:57.895Z,101059.78
2022-12-08T00:19:26.269Z,101048.91
2022-12-08T00:21:55.308Z,101041.91
2022-12-08T00:24:26.044Z,101053.63
2022-12-08T00:26:53.756Z,101046.63
2022-12-08T00:29:21.447Z,101046.00
2022-12-08T00:31:49.256Z,101039.81
2022-12-08T00:34:17.311Z,101044.16
2022-12-08T00:36:45.398Z,101039.00
2022-12-08T00:39:14.498Z,101040.00
2022-12-08T00:42:01.518Z,101027.63
2022-12-08T00:44:29.365Z,101038.38
2022-12-08T00:46:57.075Z,101038.38
2022-12-08T00:49:25.258Z,101035.88
2022-12-08T00:51:53.656Z,101036.91
2022-12-08T00:54:22.925Z,101022.72
2022-12-08T00:56:52.111Z,101028.06
2022-12-08T00:59:20.096Z,101027.22
2022-12-08T01:01:48.131Z,101030.72
2022-12-08T01:04:17.826Z,101022.72
2022-12-08T01:06:46.004Z,101023.34
2022-12-08T01:09:15.210Z,101016.97
2022-12-08T01:11:44.434Z,101016.97
2022-12-08T01:14:13.533Z,101009.78
2022-12-08T01:16:42.073Z,101007.09
2022-12-08T01:19:12.137Z,100990.59
2022-12-08T01:21:40.528Z,101006.66
2022-12-08T01:24:11.444Z,100998.66
2022-12-08T01:26:39.439Z,101002.34
2022-12-08T01:29:07.208Z,100995.94
2022-12-08T01:31:36.339Z,100998.84
2022-12-08T01:34:04.209Z,100985.25
2022-12-08T01:36:34.246Z,101002.34
2022-12-08T01:39:03.004Z,100998.00
2022-12-08T01:41:34.187Z,101005.00
2022-12-08T01:44:04.244Z,101006.88
2022-12-08T01:46:34.291Z,100999.22
2022-12-08T01:49:08.146Z,100987.72
2022-12-08T01:51:39.796Z,100991.41
2022-12-08T01:54:08.805Z,100994.09
2022-12-08T01:56:42.011Z,100990.16
2022-12-08T01:59:11.824Z,100989.34
2022-12-08T02:01:40.005Z,100986.66
2022-12-08T02:04:10.773Z,100983.16
2022-12-08T02:06:41.825Z,100982.34
2022-12-08T02:09:09.588Z,100983.16
2022-12-08T02:11:37.358Z,100980.47
2022-12-08T02:14:08.304Z,100974.31
2022-12-08T02:16:43.332Z,100976.97
2022-12-08T02:19:37.690Z,100976.34
2022-12-08T02:22:12.778Z,100963.59
2022-12-08T02:24:54.649Z,100966.69
2022-12-08T02:27:34.439Z,100961.34
2022-12-08T02:30:19.737Z,100955.16
2022-12-08T02:33:21.325Z,100948.38
2022-12-08T02:35:57.668Z,100947.53
2022-12-08T02:38:41.188Z,100951.88
2022-12-08T02:41:24.493Z,100950.84
2022-12-08T02:43:56.573Z,100945.69
2022-12-08T02:46:28.380Z,100944.66
2022-12-08T02:48:58.360Z,100936.84
2022-12-08T02:51:27.477Z,100921.41
2022-12-08T02:53:55.550Z,100936.03
2022-12-08T02:56:41.452Z,100937.88
2022-12-08T02:59:19.240Z,100928.41
2022-12-08T03:02:08.082Z,100924.50
2022-12-08T03:04:46.114Z,100918.34
2022-12-08T03:07:22.723Z,100917.50
2022-12-08T03:09:55.495Z,100915.66
2022-12-08T03:12:30.279Z,100904.34
2022-12-08T03:15:03.380Z,100913.19
2022-12-08T03:17:32.591Z,100914.84
2022-12-08T03:20:04.725Z,100906.00
2022-12-08T03:22:34.428Z,100906.00
2022-12-08T03:25:03.076Z,100899.81
2022-12-08T03:27:32.968Z,100899.00
2022-12-08T03:30:02.946Z,100900.84
2022-12-08T03:32:36.107Z,100890.97
2022-12-08T03:35:06.881Z,100894.03
2022-12-08T03:37:38.017Z,100894.28
2022-12-08T03:40:07.587Z,100886.44
2022-12-08T03:42:35.611Z,100890.97
2022-12-08T03:45:04.057Z,100883.78
2022-12-08T03:47:31.894Z,100882.75
2022-12-08T03:49:59.542Z,100886.25
2022-12-08T03:52:27.235Z,100875.75
2022-12-08T03:54:56.443Z,100875.97
2022-12-08T03:57:24.148Z,100873.50
2022-12-08T03:59:51.819Z,100871.00
2022-12-08T04:02:19.515Z,100870.19
2022-12-08T04:04:47.162Z,100865.03
2022-12-08T04:07:14.862Z,100863.19
2022-12-08T04:09:42.599Z,100871.22
2022-12-08T04:12:11.846Z,100867.09
2022-12-08T04:14:39.593Z,100866.06
2022-12-08T04:17:07.285Z,100871.41
2022-12-08T04:19:35.046Z,100860.91
2022-12-08T04:22:02.716Z,100868.31
2022-12-08T04:24:30.543Z,100857.63
2022-12-08T04:26:58.258Z,100860.28
2022-12-08T04:29:27.245Z,100855.78
2022-12-08T04:31:54.931Z,100857.41
2022-12-08T04:34:22.634Z,100855.78
2022-12-08T04:36:50.300Z,100852.28
2022-12-08T04:39:17.959Z,100853.09
2022-12-08T04:41:45.652Z,100850.63
2022-12-08T04:44:13.296Z,100854.13
2022-12-08T04:46:43.747Z,100847.13
2022-12-08T04:49:11.796Z,100837.25
2022-12-08T04:51:39.461Z,100833.78
2022-12-08T04:54:07.238Z,100827.59
2022-12-08T04:56:34.980Z,100833.78
2022-12-08T04:59:02.681Z,100839.94
2022-12-08T05:01:30.415Z,100840.13
2022-12-08T05:03:59.590Z,100836.84
2022-12-08T05:06:27.288Z,100840.13
2022-12-08T05:08:54.968Z,100850.00
2022-12-08T05:11:22.714Z,100838.06
2022-12-08T05:13:50.363Z,100848.97
2022-12-08T05:16:18.279Z,100835.81
2022-12-08T05:18:45.984Z,100841.16
2022-12-08T05:21:15.012Z,100817.47
2022-12-08T05:23:42.736Z,100836.84
2022-12-08T05:26:10.514Z,100841.34
2022-12-08T05:28:43.046Z,100839.50
2022-12-08T05:31:11.746Z,100832.50
2022-12-08T05:33:39.594Z,100832.50
2022-12-08T05:36:07.826Z,100817.94
2022-12-08T05:38:36.909Z,100826.78
2022-12-08T05:41:04.836Z,100834.78
2022-12-08T05:43:32.515Z,100825.13
2022-12-08T05:46:00.479Z,100822.44
2022-12-08T05:48:28.778Z,100823.47
2022-12-08T05:50:56.548Z,100812.97
2022-12-08T05:53:24.229Z,100820.19
2022-12-08T05:55:53.366Z,100824.50
2022-12-08T05:58:23.148Z,100813.19
2022-12-08T06:00:52.185Z,100811.53
2022-12-08T06:03:20.724Z,100813.63
2022-12-08T06:05:48.631Z,100814.69
2022-12-08T06:08:17.635Z,100807.53
2022-12-08T06:10:46.984Z,100800.38
2022-12-08T06:13:16.718Z,100781.25
2022-12-08T06:15:44.438Z,100800.38
2022-12-08T06:18:12.711Z,100799.56
2022-12-08T06:20:40.541Z,100797.31
2022-12-08T06:23:08.169Z,100802.44
2022-12-08T06:25:35.882Z,100798.94
2022-12-08T06:28:06.037Z,100790.28
2022-12-08T06:30:35.503Z,100795.81
2022-12-08T06:33:03.153Z,100792.72
2022-12-08T06:35:30.855Z,100789.63
2022-12-08T06:37:58.568Z,100769.88
2022-12-08T06:40:26.255Z,100777.28
2022-12-08T06:42:53.938Z,100776.25
2022-12-08T06:45:21.664Z,100779.94
2022-12-08T06:47:50.669Z,100780.56
2022-12-08T06:50:18.381Z,100788.97
2022-12-08T06:52:56.975Z,100783.00
2022-12-08T06:58:25.837Z,100784.44
2022-12-08T07:00:53.715Z,100797.41
2022-12-08T07:03:22.937Z,100792.28
2022-12-08T07:05:50.624Z,100797.47
2022-12-08T07:08:18.327Z,100795.25
2022-12-08T07:10:46.001Z,100794.22
2022-12-08T07:13:13.728Z,100805.13
2022-12-08T07:15:41.422Z,100799.78
2022-12-08T07:18:09.098Z,100802.06
2022-12-08T07:20:38.456Z,100806.78
2022-12-08T07:23:06.167Z,100797.53
2022-12-08T07:25:33.921Z,100796.28
2022-12-08T07:28:01.612Z,100802.66
2022-12-08T07:30:29.473Z,100806.56
2022-12-08T07:32:57.333Z,100801.41
2022-12-08T07:35:25.019Z,100795.22
2022-12-08T07:37:54.042Z,100804.88
2022-12-08T07:40:21.772Z,100795.41
2022-12-08T07:42:49.465Z,100800.16
2022-12-08T07:45:17.225Z,100798.91
2022-12-08T07:47:44.877Z,100804.66
2022-12-08T07:50:12.615Z,100797.03
2022-12-08T07:52:40.310Z,100802.97
2022-12-08T07:55:10.424Z,100794.53
2022-12-08T07:57:38.158Z,100803.59
2022-12-08T08:00:07.319Z,100796.78
2022-12-08T08:02:35.349Z,100798.03
2022-12-08T08:05:03.241Z,100811.38
2022-12-08T08:07:32.133Z,100813.63
2022-12-08T08:09:59.901Z,100803.16
2022-12-08T08:12:31.705Z,100805.63
2022-12-08T08:15:00.657Z,100813.63
2022-12-08T08:17:28.640Z,100811.56
2022-12-08T08:19:56.606Z,100808.88
2022-12-08T08:22:25.396Z,100813.22
2022-12-08T08:24:53.257Z,100816.50
2022-12-08T08:27:21.357Z,100814.88
2022-12-08T08:29:50.432Z,100816.28
2022-12-08T08:32:18.215Z,100814.00
2022-12-08T08:34:45.921Z,100810.50
2022-12-08T08:37:13.683Z,100810.50
2022-12-08T08:39:42.977Z,100808.88
2022-12-08T08:42:10.744Z,100807.00
2022-12-08T08:44:38.930Z,100813.19
2022-12-08T08:47:08.344Z,100807.63
2022-12-08T08:49:36.166Z,100808.91
2022-12-08T08:52:04.690Z,100808.34
2022-12-08T08:54:32.834Z,100811.47
2022-12-08T08:57:01.400Z,100810.88
2022-12-08T08:59:29.935Z,100807.59
2022-12-08T09:01:57.733Z,100812.97
2022-12-08T09:04:26.984Z,100802.88
2022-12-08T09:06:54.763Z,100797.91
2022-12-08T09:09:22.421Z,100797.50
2022-12-08T09:11:50.135Z,100798.31
2022-12-08T09:14:17.826Z,100792.06
2022-12-08T09:16:45.563Z,100796.38
2022-12-08T09:19:13.333Z,100803.56
2022-12-08T09:21:42.721Z,100794.91
2022-12-08T09:24:15.578Z,100801.91
2022-12-08T09:26:44.656Z,100814.09
2022-12-08T09:29:13.756Z,100808.00
2022-12-08T09:31:41.910Z,100812.56
2022-12-08T09:34:09.719Z,100812.34
2022-12-08T09:36:37.390Z,100813.78
2022-12-08T09:39:06.478Z,100805.13
2022-12-08T09:41:40.695Z,100802.47
2022-12-08T09:44:40.667Z,100802.88
2022-12-08T09:47:17.293Z,100799.38
2022-12-08T09:49:51.624Z,100796.28
2022-12-08T09:52:24.916Z,100792.56
2022-12-08T09:54:54.145Z,100793.38
2022-12-08T09:57:25.730Z,100795.25
2022-12-08T09:59:59.146Z,100785.97
2022-12-08T10:02:29.713Z,100790.09
2022-12-08T10:04:58.853Z,100783.28
2022-12-08T10:07:35.832Z,100791.72
2022-12-08T10:10:08.642Z,100793.16
2022-12-08T10:12:46.192Z,100789.84
2022-12-08T10:15:31.007Z,100782.03
2022-12-08T10:18:02.730Z,100778.31
2022-12-08T10:20:37.764Z,100779.97
2022-12-08T10:23:10.461Z,100775.03
2022-12-08T10:25:45.285Z,100778.94
2022-12-08T10:28:13.824Z,100775.63
2022-12-08T10:30:41.758Z,100773.16
2022-12-08T10:33:15.567Z,100772.13
2022-12-08T10:35:46.139Z,100771.50
2022-12-08T10:38:23.151Z,100772.53
2022-12-08T10:40:53.168Z,100770.88
2022-12-08T10:43:23.838Z,100770.06
2022-12-08T10:45:52.281Z,100769.44
2022-12-08T10:48:23.291Z,100762.66
2022-12-08T10:50:56.802Z,100765.31
2022-12-08T10:53:26.462Z,100764.50
2022-12-08T10:56:08.375Z,100767.38
2022-12-08T10:58:40.530Z,100767.56
2022-12-08T11:01:13.583Z,100757.09
2022-12-08T11:03:47.101Z,100767.56
2022-12-08T11:06:19.436Z,100759.38
2022-12-08T11:08:51.445Z,100756.53
2022-12-08T11:11:25.993Z,100750.78
2022-12-08T11:13:57.382Z,100746.91
2022-12-08T11:16:25.296Z,100741.94
2022-12-08T11:18:58.676Z,100742.97
2022-12-08T11:21:36.882Z,100725.84
2022-12-08T11:24:23.876Z,100728.69
2022-12-08T11:26:56.185Z,100729.50
2022-12-08T11:29:24.041Z,100724.47
2022-12-08T11:31:55.716Z,100725.03
2022-12-08T11:34:32.195Z,100718.78
2022-12-08T11:37:00.194Z,100716.28
2022-12-08T11:39:30.011Z,100711.13
2022-12-08T11:41:59.934Z,100691.41
2022-12-08T11:44:36.717Z,100704.63
2022-12-08T11:47:11.652Z,100711.91
2022-12-08T11:49:42.013Z,100706.44
2022-12-08T11:52:22.200Z,100705.66
2022-12-08T11:54:52.982Z,100693.13
2022-12-08T11:57:25.319Z,100710.22
2022-12-08T11:59:57.191Z,100705.09
2022-12-08T12:02:27.397Z,100700.78
2022-12-08T12:04:59.133Z,100704.06
2022-12-08T12:07:39.648Z,100698.53
2022-12-08T12:10:30.426Z,100702.66
2022-12-08T12:13:09.979Z,100690.72
2022-12-08T12:16:02.656Z,100699.34
2022-12-08T12:18:34.594Z,100694.84
2022-12-08T12:21:09.456Z,100689.06
2022-12-08T12:23:41.186Z,100689.50
2022-12-08T12:26:17.572Z,100688.88
2022-12-08T12:28:53.089Z,100690.94
2022-12-08T12:31:25.682Z,100688.66
2022-12-08T12:33:56.853Z,100682.69
2022-12-08T12:36:25.551Z,100683.31
2022-12-08T12:39:06.243Z,100686.59
2022-12-08T12:41:42.877Z,100687.22
2022-12-08T12:44:40.997Z,100688.84
2022-12-08T12:47:14.784Z,100683.47
2022-12-08T12:50:08.233Z,100680.50
2022-12-08T12:52:54.382Z,100682.50
2022-12-08T12:55:52.036Z,100688.28
2022-12-08T12:58:22.842Z,100675.13
2022-12-08T13:01:29.776Z,100679.91
2022-12-08T13:04:07.284Z,100670.84
2022-12-08T13:06:40.371Z,100677.06
2022-12-08T13:09:19.685Z,100663.09
2022-12-08T13:11:52.451Z,100665.38
2022-12-08T13:14:36.124Z,100675.28
2022-12-08T13:17:12.548Z,100671.56
2022-12-08T13:19:41.392Z,100668.91
2022-12-08T13:22:46.230Z,100674.25
2022-12-08T13:25:58.728Z,100672.41
2022-12-08T13:28:29.826Z,100680.44
2022-12-08T13:30:59.501Z,100676.13
2022-12-08T13:33:32.276Z,100674.69
2022-12-08T13:36:18.197Z,100669.53
2022-12-08T13:38:48.310Z,100665.63
2022-12-08T13:41:21.561Z,100662.94
2022-12-08T13:44:50.227Z,100662.34
2022-12-08T13:53:49.660Z,100649.19
2022-12-08T13:56:51.254Z,100647.31
2022-12-08T13:58:25.390Z,100639.31
2022-12-08T14:00:58.598Z,100644.84
2022-12-08T14:03:26.419Z,100632.31
2022-12-08T14:06:12.179Z,100637.03
2022-12-08T14:11:35.340Z,100639.72
2022-12-08T14:14:05.907Z,100639.91
2022-12-08T14:16:39.733Z,100633.34
2022-12-08T14:19:17.030Z,100642.81
2022-12-08T14:21:51.932Z,100640.13
2022-12-08T14:24:19.647Z,100652.66
2022-12-08T14:26:52.415Z,100651.03
2022-12-08T14:29:34.879Z,100647.53
2022-12-08T14:32:02.644Z,100652.06
2022-12-08T14:34:30.344Z,100656.16
2022-12-08T14:37:00.047Z,100655.34
2022-12-08T14:39:27.822Z,100653.50
2022-12-08T14:42:01.251Z,100648.34
2022-12-08T14:44:33.551Z,100648.16
2022-12-08T14:47:06.279Z,100646.50
2022-12-08T14:49:35.386Z,100644.84
2022-12-08T14:52:10.904Z,100648.97
2022-12-08T14:54:40.085Z,100639.31
2022-12-08T14:57:08.704Z,100644.03
2022-12-08T14:59:38.742Z,100641.56
2022-12-08T15:02:27.486Z,100636.44
2022-12-08T15:04:59.425Z,100642.38
2022-12-08T15:07:31.435Z,100647.13
2022-12-08T15:10:19.827Z,100644.44
2022-12-08T15:12:58.608Z,100653.28
2022-12-08T15:15:26.624Z,100639.91
2022-12-08T15:18:03.374Z,100648.56
2022-12-08T15:20:41.451Z,100653.69
2022-12-08T15:23:19.402Z,100642.59
2022-12-08T15:25:47.317Z,100661.09
2022-12-08T15:28:16.906Z,100660.28
2022-12-08T15:30:44.699Z,100664.59
2022-12-08T15:33:12.403Z,100646.91
2022-12-08T15:35:41.089Z,100670.97
2022-12-08T15:38:23.258Z,100668.50
2022-12-08T15:40:51.342Z,100673.84
2022-12-08T15:43:19.083Z,100670.34
2022-12-08T15:45:57.968Z,100666.84
2022-12-08T15:48:29.185Z,100670.56
2022-12-08T15:50:57.396Z,100668.91
2022-12-08T15:53:26.712Z,100672.59
2022-12-08T15:58:58.628Z,100664.59
2022-12-08T16:01:27.160Z,100678.16
2022-12-08T16:07:19.880Z,100666.44
2022-12-08T16:09:36.266Z,100677.97
2022-12-08T16:12:21.955Z,100667.06
2022-12-08T16:17:37.837Z,100665.38
2022-12-08T16:20:08.320Z,100666.16
2022-12-08T16:22:56.763Z,100655.66
2022-12-08T16:25:26.690Z,100661.84
2022-12-08T16:28:05.303Z,100655.09
2022-12-08T16:30:40.498Z,100642.34
2022-12-08T16:33:08.373Z,100639.28
2022-12-08T16:35:36.077Z,100643.19
2022-12-08T16:38:03.838Z,100639.69
2022-12-08T16:40:33.104Z,100638.28
2022-12-08T16:42:59.844Z,100638.06
2022-12-08T16:45:29.671Z,100637.44
2022-12-08T16:47:58.860Z,100635.81
2022-12-08T16:50:29.145Z,100638.28
2022-12-08T16:52:58.581Z,100638.28
2022-12-08T16:55:26.326Z,100640.34
2022-12-08T16:57:56.038Z,100633.53
2022-12-08T17:00:25.953Z,100641.56
2022-12-08T17:02:53.879Z,100628.81
2022-12-08T17:05:23.547Z,100627.59
2022-12-08T17:07:52.936Z,100634.56
2022-12-08T17:10:23.042Z,100633.13
2022-12-08T17:12:51.754Z,100640.53
2022-12-08T17:15:22.641Z,100634.56
2022-12-08T17:17:50.545Z,100633.97
2022-12-08T17:20:29.438Z,100637.44
2022-12-08T17:22:58.889Z,100640.94
2022-12-08T17:25:27.238Z,100656.16
2022-12-08T17:27:56.594Z,100646.28
2022-12-08T17:30:25.648Z,100643.00
2022-12-08T17:32:54.400Z,100639.66
2022-12-08T17:35:22.150Z,100625.44
2022-12-08T17:37:49.903Z,100635.25
2022-12-08T17:40:17.670Z,100639.13
2022-12-08T17:42:45.723Z,100632.09
2022-12-08T17:45:13.510Z,100636.13
2022-12-08T17:47:42.596Z,100638.53
2022-12-08T17:50:10.940Z,100637.22
2022-12-08T17:52:38.703Z,100635.94
2022-12-08T17:55:07.254Z,100639.84
2022-12-08T17:57:34.893Z,100650.28
2022-12-08T18:00:03.061Z,100644.31
2022-12-08T18:02:33.476Z,100640.81
2022-12-08T18:05:02.621Z,100640.78
2022-12-08T18:07:30.561Z,100636.72
2022-12-08T18:09:58.241Z,100631.66
2022-12-08T18:12:25.939Z,100626.59
2022-12-08T18:14:53.651Z,100637.44
2022-12-08T18:17:21.577Z,100637.88
2022-12-08T18:19:49.354Z,100626.81
2022-12-08T18:22:18.444Z,100634.88
2022-12-08T18:24:47.641Z,100628.31
2022-12-08T18:27:15.358Z,100622.78
2022-12-08T18:29:43.071Z,100618.03
2022-12-08T18:32:10.839Z,100626.19
2022-12-08T18:34:38.480Z,100626.13
2022-12-08T18:37:07.413Z,100626.31
2022-12-08T18:39:37.535Z,100622.31
2022-12-08T18:42:22.760Z,100618.25
2022-12-08T18:44:51.457Z,100617.41
2022-12-08T18:47:19.510Z,100619.72
2022-12-08T18:49:47.234Z,100612.00
2022-12-08T18:52:19.292Z,100614.75
2022-12-08T18:55:08.380Z,100623.28
2022-12-08T18:57:38.295Z,100614.66
2022-12-08T19:00:08.159Z,100611.81
2022-12-08T19:02:36.349Z,100622.09
2022-12-08T19:05:04.375Z,100612.84
2022-12-08T19:07:32.306Z,100608.97
2022-12-08T19:10:01.650Z,100608.97
2022-12-08T19:12:29.701Z,100609.59
2022-12-08T19:14:57.845Z,100609.41
2022-12-08T19:17:26.565Z,100616.22
2022-12-08T19:19:54.366Z,100619.09
2022-12-08T19:22:22.110Z,100615.63
2022-12-08T19:24:49.897Z,100622.41
2022-12-08T19:27:19.021Z,100620.16
2022-12-08T19:29:46.714Z,100619.75
2022-12-08T19:32:14.597Z,100613.78
2022-12-08T19:34:42.429Z,100615.03
2022-12-08T19:37:12.523Z,100616.47
2022-12-08T19:39:58.741Z,100622.03
2022-12-08T19:42:45.707Z,100625.94
2022-12-08T19:45:16.128Z,100626.56
2022-12-08T19:47:44.579Z,100628.59
2022-12-08T19:50:31.615Z,100628.00
2022-12-08T19:52:59.738Z,100628.00
2022-12-08T19:55:28.276Z,100618.53
2022-12-08T19:57:58.349Z,100623.88
2022-12-08T20:00:26.350Z,100617.09
2022-12-08T20:02:54.170Z,100620.78
2022-12-08T20:05:22.156Z,100619.97
2022-12-08T20:07:49.925Z,100619.34
2022-12-08T20:10:22.011Z,100609.69
2022-12-08T20:12:49.741Z,100615.25
2022-12-08T20:15:19.340Z,100610.94
2022-12-08T20:17:47.083Z,100618.94
2022-12-08T20:20:15.250Z,100614.84
2022-12-08T20:22:45.100Z,100621.00
2022-12-08T20:25:13.424Z,100618.53
2022-12-08T20:27:42.131Z,100612.38
2022-12-08T20:30:16.509Z,100612.56
2022-12-08T20:32:46.288Z,100600.03
2022-12-08T20:35:14.039Z,100612.78
2022-12-08T20:37:41.848Z,100608.47
2022-12-08T20:40:10.577Z,100602.28
2022-12-08T20:42:38.381Z,100606.19
2022-12-08T20:45:09.052Z,100614.22
2022-12-08T20:47:37.691Z,100615.44
2022-12-08T20:50:08.733Z,100615.66
2022-12-08T20:52:37.925Z,100612.16
2022-12-08T20:55:07.308Z,100601.69
2022-12-08T20:57:35.273Z,100609.50
2022-12-08T21:00:03.313Z,100614.00
2022-12-08T21:02:31.613Z,100606.41
2022-12-08T21:04:59.706Z,100611.34
2022-12-08T21:07:28.947Z,100612.56
2022-12-08T21:09:56.928Z,100611.13
2022-12-08T21:12:24.805Z,100610.31
2022-12-08T21:14:52.798Z,100613.38
2022-12-08T21:17:20.655Z,100606.00
2022-12-08T21:19:48.788Z,100616.06
2022-12-08T21:22:17.229Z,100614.41
2022-12-08T21:24:46.342Z,100617.09
2022-12-08T21:27:14.338Z,100612.34
2022-12-08T21:29:42.034Z,100617.28
2022-12-08T21:32:09.977Z,100619.97
2022-12-08T21:34:37.744Z,100616.88
2022-12-08T21:37:05.879Z,100617.06
2022-12-08T21:39:33.683Z,100626.13
2022-12-08T21:42:22.726Z,100627.97
2022-12-08T21:44:50.880Z,100630.06
2022-12-08T21:47:18.698Z,100628.59
2022-12-08T21:49:46.512Z,100631.06
2022-12-08T21:52:14.246Z,100631.28
2022-12-08T21:54:42.190Z,100633.13
2022-12-08T21:57:12.511Z,100610.50
2022-12-08T21:59:40.318Z,100619.56
2022-12-08T22:02:10.421Z,100631.88
2022-12-08T22:04:38.386Z,100630.03
2022-12-08T22:07:07.224Z,100626.75
2022-12-08T22:09:35.392Z,100630.25
2022-12-08T22:12:03.229Z,100624.28
2022-12-08T22:14:32.678Z,100632.50
2022-12-08T22:17:00.627Z,100634.13
2022-12-08T22:19:28.435Z,100638.66
2022-12-08T22:21:56.276Z,100632.69
2022-12-08T22:24:24.140Z,100628.38
2022-12-08T22:26:51.853Z,100630.03
2022-12-08T22:29:19.566Z,100632.91
2022-12-08T22:31:48.712Z,100626.72
2022-12-08T22:34:16.380Z,100630.44
2022-12-08T22:36:44.413Z,100620.97
2022-12-08T22:39:12.309Z,100626.31
2022-12-08T22:41:39.984Z,100608.63
2022-12-08T22:44:08.149Z,100622.00
2022-12-08T22:46:35.945Z,100616.88
2022-12-08T22:49:05.180Z,100609.88
2022-12-08T22:51:32.887Z,100605.75
2022-12-08T22:54:00.551Z,100610.28
2022-12-08T22:56:28.189Z,100610.28
2022-12-08T22:58:56.093Z,100612.13
2022-12-08T23:01:25.712Z,100610.28
2022-12-08T23:03:53.645Z,100607.59
2022-12-08T23:06:22.877Z,100619.94
2022-12-08T23:08:51.339Z,100601.03
2022-12-08T23:11:20.155Z,100613.97
2022-12-08T23:13:48.523Z,100608.84
2022-12-08T23:16:16.692Z,100617.66
2022-12-08T23:18:46.281Z,100608.41
2022-12-08T23:21:17.246Z,100613.34
2022-12-08T23:23:46.720Z,100620.75
2022-12-08T23:26:20.292Z,100616.03
2022-12-08T23:28:48.138Z,100614.38
2022-12-08T23:31:16.057Z,100612.72
2022-12-08T23:33:44.252Z,100615.59
2022-12-08T23:36:13.301Z,100615.59
2022-12-08T23:38:41.033Z,100613.13
2022-12-08T23:41:13.093Z,100615.81
2022-12-08T23:43:44.933Z,100613.13
2022-12-08T23:46:12.797Z,100615.81
2022-12-08T23:48:40.576Z,100616.00
2022-12-08T23:51:08.332Z,100601.22
2022-12-08T23:53:36.010Z,100604.09
2022-12-08T23:56:06.271Z,100605.72
2022-12-08T23:58:36.179Z,100599.56
